LLHA

Details ICAO LLHA (HFA)
Name Haifa
Region Israel
Timezone Asia/Jerusalem (UTC+3.0)
Plans Departing 77
Arriving 35
Stats Elevation 28 ft / 9 m (AMSL)
Location 32.811125° 35.044139°
Runways 1
Magnetic Variation 4.818° E
Sunrise 2018-05-26 02:36:17 UTC / 2018-05-26 05:36:17 Local
Sunset 2018-05-26 16:40:18 UTC / 2018-05-26 19:40:18 Local
Advertisement - Login to hide

Runways

ID Width Length Bearing (true) Bearing (mag) Surface Threshold Offset Overrun Length
16 98 ft / 30 m 4,161 ft / 1,268 m 158.88° 154.06° Asphalt 164 ft / 50 m 0 ft / 0 m
34 98 ft / 30 m 4,161 ft / 1,268 m 338.88° 334.06° Asphalt 380 ft / 116 m 90 ft / 27 m

Map

Weather


0- 5 10 15 20 25 30 35+ Temperature / ° C

Clouds and Precipitation
Forecast for 2018-05-26 00:00 UTC. Updated 5 hours ago

Ground ~20,000 ft ~40,000 ft Winds

METAR

LLHA 260400Z 33004KT 9999 SCT017 23/19 Q1009

TAF

TAF AMD LLHA 260304Z 2603/2624 35005KT 9999 SCT015 BECMG 2607/2609 33012KT CAVOK BECMG 2615/2617 35005KT 9999 SCT015 TX29/2611Z TN21/2603Z

Frequencies

Ground 127.80 MHz GND
Tower 133.00 MHz TWR
Warning: Do not use this data for real-world aviation or navigation. No guarantee of current accuracy is given.